Time;durP1;ratioP1;P1;durP2;ratioP2;P2;SDS_P1;SDS_P2;PMS_P1;PMS_P2;Temp;Humidity;BMP_temperature;BMP_pressure;BME280_temperature;BME280_humidity;BME280_pressure;Samples;Min_cycle;Max_cycle;Signal;HPM_P1;HPM_P2
2020/12/03 00:00:37;;;;;;;54.30;18.97;;;0.60;99.90;;;;;;5069983;28;20936;-51
2020/12/03 00:03:10;;;;;;;53.23;18.53;;;0.70;99.90;;;;;;5070488;28;20450;-51
2020/12/03 00:05:36;;;;;;;55.60;19.33;;;0.80;99.90;;;;;;5070603;28;20936;-51
2020/12/03 00:08:04;;;;;;;46.80;17.63;;;0.90;99.90;;;;;;5070273;28;20947;-51
2020/12/03 00:10:31;;;;;;;50.87;19.30;;;0.90;99.90;;;;;;5070238;28;20485;-51
2020/12/03 00:13:03;;;;;;;47.53;17.10;;;1.00;99.90;;;;;;5069825;28;20454;-51
2020/12/03 00:15:30;;;;;;;52.90;17.90;;;1.00;99.90;;;;;;5070527;28;20451;-51
2020/12/03 00:17:57;;;;;;;42.63;16.50;;;0.90;99.90;;;;;;5069966;28;20457;-51
2020/12/03 00:20:24;;;;;;;48.53;18.00;;;0.90;99.90;;;;;;5070273;28;20511;-51
2020/12/03 00:22:50;;;;;;;49.20;17.57;;;0.90;99.90;;;;;;5071005;28;20469;-51
2020/12/03 00:25:17;;;;;;;47.97;17.37;;;0.90;99.90;;;;;;5074077;28;20447;-51
2020/12/03 00:27:51;;;;;;;50.50;18.10;;;0.90;99.90;;;;;;5073941;28;20511;-51
2020/12/03 00:30:18;;;;;;;53.93;19.47;;;0.90;99.90;;;;;;5073655;28;20607;-51
2020/12/03 00:32:45;;;;;;;52.87;18.17;;;0.90;99.90;;;;;;5073821;28;20527;-51
2020/12/03 00:35:13;;;;;;;57.87;18.20;;;0.80;99.90;;;;;;5073655;28;21057;-51
2020/12/03 00:37:40;;;;;;;49.37;17.83;;;0.90;99.90;;;;;;5073685;28;20507;-51
2020/12/03 00:40:07;;;;;;;52.13;18.50;;;0.90;99.90;;;;;;5072220;28;20540;-51
2020/12/03 00:42:35;;;;;;;53.90;18.93;;;0.80;99.90;;;;;;5073476;28;20450;-51
2020/12/03 00:45:02;;;;;;;56.63;18.80;;;0.80;99.90;;;;;;5073664;28;20454;-51
2020/12/03 00:47:28;;;;;;;50.50;17.30;;;0.80;99.90;;;;;;5073241;28;20445;-51
2020/12/03 00:49:56;;;;;;;55.53;19.70;;;0.90;99.90;;;;;;5073111;28;20473;-51
2020/12/03 00:52:23;;;;;;;55.20;18.73;;;0.90;99.90;;;;;;5073475;28;20450;-51
2020/12/03 00:54:50;;;;;;;44.60;17.50;;;1.00;99.90;;;;;;5073428;28;20469;-51
2020/12/03 00:57:16;;;;;;;52.67;18.43;;;1.10;99.90;;;;;;5073480;28;20449;-51
2020/12/03 00:59:43;;;;;;;52.10;18.90;;;0.80;99.90;;;;;;5072837;28;20480;-51
2020/12/03 01:02:12;;;;;;;46.60;17.67;;;0.80;99.90;;;;;;5073475;28;20507;-51
2020/12/03 01:04:39;;;;;;;48.27;18.40;;;0.90;99.90;;;;;;5073062;28;20480;-51
2020/12/03 01:07:06;;;;;;;46.23;16.33;;;0.90;99.90;;;;;;5073167;28;20938;-51
2020/12/03 01:09:34;;;;;;;49.27;18.67;;;0.90;99.90;;;;;;5073147;28;20470;-51
2020/12/03 01:12:01;;;;;;;54.77;19.93;;;0.80;99.90;;;;;;5072763;28;20538;-51
2020/12/03 01:14:27;;;;;;;54.47;19.30;;;0.70;99.90;;;;;;5072802;28;20452;-51
2020/12/03 01:16:55;;;;;;;53.00;19.00;;;0.60;99.90;;;;;;5072675;28;20502;-51
2020/12/03 01:19:21;;;;;;;53.90;18.73;;;0.70;99.90;;;;;;5072722;28;20492;-51
2020/12/03 01:21:48;;;;;;;48.47;17.97;;;0.80;99.90;;;;;;5072633;28;20456;-51
2020/12/03 01:24:14;;;;;;;53.80;18.17;;;0.60;99.90;;;;;;5072800;28;20852;-51
2020/12/03 01:26:41;;;;;;;48.73;18.07;;;0.60;99.90;;;;;;5072477;28;20453;-51
2020/12/03 01:29:07;;;;;;;55.00;18.40;;;0.50;99.90;;;;;;5072591;28;20518;-51
2020/12/03 01:31:34;;;;;;;52.77;17.90;;;0.60;99.90;;;;;;5072611;28;20486;-51
2020/12/03 01:34:01;;;;;;;53.27;19.17;;;0.50;99.90;;;;;;5071947;28;20944;-51
2020/12/03 01:36:27;;;;;;;54.13;19.07;;;0.50;99.90;;;;;;5071571;28;20503;-51
2020/12/03 01:38:54;;;;;;;60.27;19.67;;;0.40;99.90;;;;;;5072267;28;20523;-51
2020/12/03 01:41:20;;;;;;;52.53;19.50;;;0.40;99.90;;;;;;5072342;28;20876;-51
2020/12/03 01:43:47;;;;;;;61.27;20.10;;;0.40;99.90;;;;;;5072355;28;20448;-51
2020/12/03 01:46:15;;;;;;;58.03;19.40;;;0.40;99.90;;;;;;5072201;28;20454;-51
2020/12/03 01:48:46;;;;;;;56.23;18.00;;;0.40;99.90;;;;;;5072026;28;20557;-51
2020/12/03 01:51:23;;;;;;;48.03;16.30;;;0.50;99.90;;;;;;5072241;28;20515;-51
2020/12/03 01:53:52;;;;;;;53.43;17.50;;;0.50;99.90;;;;;;5072273;28;20942;-51
2020/12/03 01:56:29;;;;;;;54.83;18.80;;;0.50;99.90;;;;;;5071884;28;20526;-51
2020/12/03 01:59:00;;;;;;;52.90;18.00;;;0.50;99.90;;;;;;5071797;28;20477;-51
2020/12/03 02:01:27;;;;;;;50.40;19.00;;;0.40;99.90;;;;;;5071804;28;21016;-52
2020/12/03 02:03:53;;;;;;;48.37;18.90;;;0.60;99.90;;;;;;5072055;28;21058;-51
2020/12/03 02:06:22;;;;;;;48.03;18.30;;;0.60;99.90;;;;;;5072133;28;20457;-51
2020/12/03 02:08:49;;;;;;;55.73;18.83;;;0.60;99.90;;;;;;5071913;28;20531;-51
2020/12/03 02:11:17;;;;;;;52.60;18.37;;;0.60;99.90;;;;;;5072171;28;21009;-51
2020/12/03 02:13:51;;;;;;;47.63;17.03;;;0.50;99.90;;;;;;5071611;28;20483;-51
2020/12/03 02:16:17;;;;;;;49.03;17.70;;;0.50;99.90;;;;;;5071450;28;20556;-51
2020/12/03 02:18:45;;;;;;;50.23;17.57;;;0.50;99.90;;;;;;5071745;28;20523;-51
2020/12/03 02:21:12;;;;;;;47.80;17.10;;;0.40;99.90;;;;;;5071539;28;20446;-51
2020/12/03 02:23:39;;;;;;;51.63;18.60;;;0.50;99.90;;;;;;5071736;28;20458;-51
2020/12/03 02:26:05;;;;;;;53.27;18.37;;;0.50;99.90;;;;;;5095864;22;20489;-49
2020/12/03 02:28:32;;;;;;;55.37;18.90;;;0.40;99.90;;;;;;5071527;28;20449;-49
2020/12/03 02:30:58;;;;;;;49.80;18.40;;;0.30;99.90;;;;;;5071320;28;20478;-49
2020/12/03 02:33:25;;;;;;;55.20;19.80;;;0.40;99.90;;;;;;5071645;28;20491;-48
2020/12/03 02:35:51;;;;;;;53.97;18.83;;;0.50;99.90;;;;;;5069716;28;20473;-48
2020/12/03 02:38:18;;;;;;;49.50;17.43;;;0.60;99.90;;;;;;5071470;28;20940;-48
2020/12/03 02:40:45;;;;;;;50.57;18.93;;;0.50;99.90;;;;;;5070209;28;21004;-48
2020/12/03 02:43:11;;;;;;;48.70;17.80;;;0.40;99.90;;;;;;5071636;28;20507;-48
2020/12/03 02:45:38;;;;;;;52.43;17.97;;;0.40;99.90;;;;;;5070755;28;20457;-49
2020/12/03 02:48:04;;;;;;;54.63;18.87;;;0.40;99.90;;;;;;5071115;28;20897;-49
2020/12/03 02:50:31;;;;;;;50.07;18.23;;;0.50;99.90;;;;;;5070478;28;20900;-48
2020/12/03 02:52:57;;;;;;;48.77;17.60;;;0.50;99.90;;;;;;5071095;28;20454;-49
2020/12/03 02:55:25;;;;;;;49.47;17.73;;;0.60;99.90;;;;;;5070965;28;20457;-49
2020/12/03 02:57:51;;;;;;;42.63;15.93;;;0.50;99.90;;;;;;5070692;28;20450;-49
2020/12/03 03:00:18;;;;;;;47.07;16.57;;;0.60;99.90;;;;;;5070665;28;20500;-48
2020/12/03 03:02:44;;;;;;;52.03;17.17;;;0.50;99.90;;;;;;5071052;28;20443;-49
2020/12/03 03:05:11;;;;;;;48.03;18.43;;;0.60;99.90;;;;;;5070962;28;20512;-48
2020/12/03 03:07:37;;;;;;;50.50;17.60;;;0.60;99.90;;;;;;5070834;28;20470;-48
2020/12/03 03:10:04;;;;;;;54.33;18.80;;;0.50;99.90;;;;;;5070471;28;20532;-48
2020/12/03 03:12:31;;;;;;;55.23;18.47;;;0.50;99.90;;;;;;5070935;28;20523;-48
2020/12/03 03:14:58;;;;;;;48.90;18.53;;;0.50;99.90;;;;;;5070697;28;20458;-48
2020/12/03 03:17:25;;;;;;;50.63;18.37;;;0.60;99.90;;;;;;5070382;28;20497;-48
2020/12/03 03:19:52;;;;;;;51.03;17.43;;;0.60;99.90;;;;;;5070452;28;20450;-49
2020/12/03 03:22:18;;;;;;;46.03;17.73;;;0.40;99.90;;;;;;5070467;28;20452;-49
2020/12/03 03:24:45;;;;;;;50.67;18.07;;;0.40;99.90;;;;;;5069755;28;21012;-49
2020/12/03 03:27:11;;;;;;;52.90;18.90;;;0.40;99.90;;;;;;5069943;28;20915;-48
2020/12/03 03:29:38;;;;;;;52.20;17.47;;;0.30;99.90;;;;;;5070600;28;20495;-48
2020/12/03 03:32:05;;;;;;;46.47;17.60;;;0.40;99.90;;;;;;5070625;28;21001;-48
2020/12/03 03:34:31;;;;;;;48.53;16.80;;;0.50;99.90;;;;;;5070057;28;20479;-48
2020/12/03 03:36:58;;;;;;;49.23;17.40;;;0.70;99.90;;;;;;5070102;28;21076;-48
2020/12/03 03:39:25;;;;;;;50.97;17.80;;;0.70;99.90;;;;;;5070566;28;20446;-49
2020/12/03 03:41:53;;;;;;;53.10;16.43;;;0.50;99.90;;;;;;5070597;28;20442;-48
2020/12/03 03:44:21;;;;;;;50.87;18.23;;;0.50;99.90;;;;;;5070485;28;20541;-48
2020/12/03 03:46:49;;;;;;;47.50;17.00;;;0.60;99.90;;;;;;5069285;28;20553;-48
2020/12/03 03:49:15;;;;;;;44.60;17.07;;;0.60;99.90;;;;;;5071891;28;20483;-48
2020/12/03 03:51:42;;;;;;;54.13;18.47;;;0.60;99.90;;;;;;5083163;28;20543;-48
2020/12/03 03:54:08;;;;;;;54.30;18.63;;;0.60;99.90;;;;;;5071426;28;20454;-48
2020/12/03 03:56:35;;;;;;;48.90;17.87;;;0.60;99.90;;;;;;5069506;28;21040;-48
2020/12/03 03:59:02;;;;;;;45.97;18.40;;;0.70;99.90;;;;;;5069117;28;20931;-48
2020/12/03 04:01:28;;;;;;;49.00;17.70;;;0.70;99.90;;;;;;5079134;28;20944;-48
2020/12/03 04:03:59;;;;;;;44.33;15.83;;;0.60;99.90;;;;;;5075993;28;20951;-48
2020/12/03 04:06:25;;;;;;;51.37;17.43;;;0.60;99.90;;;;;;5078290;28;20993;-48
2020/12/03 04:08:55;;;;;;;50.50;17.80;;;0.70;99.90;;;;;;5093239;28;20445;-48
2020/12/03 04:11:21;;;;;;;47.87;17.20;;;0.60;99.90;;;;;;5093118;28;20556;-48
2020/12/03 04:13:48;;;;;;;50.50;17.60;;;0.70;99.90;;;;;;5088027;28;20454;-48
2020/12/03 04:16:14;;;;;;;51.80;17.60;;;0.60;99.90;;;;;;5074428;28;20457;-49
2020/12/03 04:18:41;;;;;;;48.97;17.13;;;0.50;99.90;;;;;;5073867;28;20514;-48
2020/12/03 04:21:09;;;;;;;52.73;18.40;;;0.50;99.90;;;;;;5093486;28;20436;-48
2020/12/03 04:23:36;;;;;;;42.50;18.47;;;0.50;99.90;;;;;;5093253;28;20449;-48
2020/12/03 04:26:04;;;;;;;48.50;18.47;;;0.60;99.90;;;;;;5093003;28;20988;-48
2020/12/03 04:28:30;;;;;;;43.90;18.60;;;0.70;99.90;;;;;;5069576;28;20480;-48
2020/12/03 04:30:58;;;;;;;44.03;16.33;;;0.70;99.90;;;;;;5073700;28;21007;-49
2020/12/03 04:33:25;;;;;;;47.83;18.17;;;0.60;99.90;;;;;;5073893;28;21023;-48
2020/12/03 04:35:52;;;;;;;56.10;18.20;;;0.50;99.90;;;;;;5072957;28;20482;-48
2020/12/03 04:38:19;;;;;;;52.37;17.17;;;0.50;99.90;;;;;;5073330;28;20447;-48
2020/12/03 04:40:50;;;;;;;48.10;17.50;;;0.60;99.90;;;;;;5069505;28;20879;-49
2020/12/03 04:43:29;;;;;;;43.17;16.90;;;0.40;99.90;;;;;;5073544;28;20483;-48
2020/12/03 04:46:01;;;;;;;50.40;17.80;;;0.40;99.90;;;;;;5077442;28;20475;-49
2020/12/03 04:48:42;;;;;;;46.53;15.70;;;0.50;99.90;;;;;;5092415;28;21793;-49
2020/12/03 04:51:29;;;;;;;51.57;17.90;;;0.60;99.90;;;;;;5087900;28;20899;-49
2020/12/03 04:54:16;;;;;;;44.80;16.67;;;0.50;99.90;;;;;;5073531;28;20504;-49
2020/12/03 04:56:53;;;;;;;46.50;17.00;;;0.50;99.90;;;;;;5073578;28;20507;-48
2020/12/03 04:59:33;;;;;;;45.57;17.03;;;0.70;99.90;;;;;;5073039;28;20448;-48
2020/12/03 05:02:15;;;;;;;46.67;15.93;;;0.70;99.90;;;;;;5068247;28;20454;-48
2020/12/03 05:04:52;;;;;;;44.77;15.93;;;0.60;99.90;;;;;;5070753;28;20446;-48
2020/12/03 05:07:22;;;;;;;43.60;16.63;;;0.60;99.90;;;;;;5073553;28;20458;-49
2020/12/03 05:09:59;;;;;;;42.60;17.10;;;0.60;99.90;;;;;;5072618;28;20450;-48
2020/12/03 05:12:31;;;;;;;46.60;16.67;;;0.60;99.90;;;;;;5072471;28;20509;-48
2020/12/03 05:15:05;;;;;;;38.97;16.10;;;0.70;99.90;;;;;;5073427;28;20942;-48
2020/12/03 05:18:00;;;;;;;47.70;17.33;;;0.80;99.90;;;;;;5069911;28;20490;-49
2020/12/03 05:20:40;;;;;;;46.87;16.83;;;0.70;99.90;;;;;;5071911;28;20856;-49
2020/12/03 05:23:12;;;;;;;53.03;16.63;;;0.50;99.90;;;;;;5075399;28;20856;-48
2020/12/03 05:25:40;;;;;;;52.33;17.53;;;0.50;99.90;;;;;;5070819;28;20442;-48
2020/12/03 05:28:43;;;;;;;42.47;17.77;;;0.50;99.90;;;;;;5090907;28;20441;-48
2020/12/03 05:31:22;;;;;;;46.87;17.17;;;0.50;99.90;;;;;;5091510;28;20567;-48
2020/12/03 05:33:49;;;;;;;43.20;16.90;;;0.50;99.90;;;;;;5087553;28;20460;-48
2020/12/03 05:36:34;;;;;;;47.20;16.83;;;0.50;99.90;;;;;;5072680;28;20465;-48
2020/12/03 05:39:04;;;;;;;46.73;16.67;;;0.50;99.90;;;;;;5072034;28;20450;-49
2020/12/03 05:41:34;;;;;;;41.93;17.17;;;0.60;99.90;;;;;;5072455;28;20985;-48
2020/12/03 05:44:06;;;;;;;46.03;17.47;;;0.60;99.90;;;;;;5072524;28;20492;-48
2020/12/03 05:46:34;;;;;;;47.50;17.77;;;0.60;99.90;;;;;;5072652;28;20505;-49
2020/12/03 05:49:04;;;;;;;44.67;16.57;;;0.70;99.90;;;;;;5072203;28;20450;-49
2020/12/03 05:51:33;;;;;;;45.97;18.40;;;0.70;99.90;;;;;;5072558;28;20614;-49
2020/12/03 05:54:04;;;;;;;50.60;17.40;;;0.60;99.90;;;;;;5072214;28;20520;-48
2020/12/03 05:56:32;;;;;;;45.30;16.33;;;0.70;99.90;;;;;;5072287;28;20467;-49
2020/12/03 05:59:13;;;;;;;45.00;18.30;;;0.50;99.90;;;;;;5072267;28;20446;-48
2020/12/03 06:01:53;;;;;;;48.20;18.27;;;0.60;99.90;;;;;;5072069;28;20499;-49
2020/12/03 06:04:25;;;;;;;50.23;16.53;;;0.60;99.90;;;;;;5072135;28;20441;-48
2020/12/03 06:07:28;;;;;;;45.67;16.53;;;0.60;99.90;;;;;;5071469;28;20557;-49
2020/12/03 06:10:25;;;;;;;46.50;17.43;;;0.60;99.90;;;;;;5071858;28;20502;-49
2020/12/03 06:13:23;;;;;;;45.53;16.77;;;0.80;99.90;;;;;;5066127;28;20446;-49
2020/12/03 06:15:53;;;;;;;40.90;16.33;;;0.80;99.90;;;;;;5070688;28;20473;-49
2020/12/03 06:18:46;;;;;;;46.27;15.93;;;0.70;99.90;;;;;;5071682;28;20450;-49
2020/12/03 06:21:33;;;;;;;45.23;16.03;;;0.80;99.90;;;;;;5070234;28;20508;-49
2020/12/03 06:24:20;;;;;;;40.27;14.93;;;0.80;99.90;;;;;;5048313;28;20516;-48
2020/12/03 06:27:08;;;;;;;40.63;15.03;;;0.70;99.90;;;;;;5051522;28;20532;-49
2020/12/03 06:29:50;;;;;;;41.50;15.40;;;0.80;99.90;;;;;;5051377;28;20439;-49
2020/12/03 06:32:40;;;;;;;42.47;16.83;;;0.70;99.90;;;;;;5063447;28;20512;-48
2020/12/03 06:35:19;;;;;;;42.27;14.67;;;0.60;99.90;;;;;;5070456;28;20442;-48
2020/12/03 06:37:52;;;;;;;49.73;17.57;;;0.70;99.90;;;;;;5087147;28;20453;-48
2020/12/03 06:40:24;;;;;;;41.50;15.27;;;0.60;99.90;;;;;;5067072;28;20866;-49
2020/12/03 06:42:56;;;;;;;37.87;15.87;;;0.50;99.90;;;;;;5069847;28;20439;-48
2020/12/03 06:45:42;;;;;;;42.80;16.63;;;0.60;99.90;;;;;;5090348;28;20468;-49
2020/12/03 06:48:56;;;;;;;47.13;18.40;;;0.60;99.90;;;;;;5072003;28;20465;-48
2020/12/03 06:51:42;;;;;;;48.50;16.53;;;0.50;99.90;;;;;;5071490;28;20490;-49
2020/12/03 06:54:40;;;;;;;43.97;16.27;;;0.60;99.90;;;;;;5076211;28;20453;-48
2020/12/03 06:58:00;;;;;;;43.90;15.73;;;0.60;99.90;;;;;;5070057;28;20462;-48
2020/12/03 07:01:12;;;;;;;38.77;14.30;;;0.70;99.90;;;;;;4988326;28;20535;-47
2020/12/03 07:04:19;;;;;;;45.23;16.10;;;0.80;99.90;;;;;;4969863;28;20503;-48
2020/12/03 07:07:11;;;;;;;42.73;15.43;;;0.70;99.90;;;;;;5062613;28;20473;-48
2020/12/03 07:10:13;;;;;;;41.83;16.70;;;0.90;99.90;;;;;;5070797;28;20442;-48
2020/12/03 07:12:57;;;;;;;42.23;14.20;;;0.90;99.90;;;;;;5070237;28;20537;-48
2020/12/03 07:16:22;;;;;;;42.20;15.67;;;0.90;99.90;;;;;;5068765;28;20929;-49
2020/12/03 07:19:21;;;;;;;45.23;16.90;;;0.90;99.90;;;;;;5049873;28;20512;-48
2020/12/03 07:22:06;;;;;;;41.80;15.90;;;0.90;99.90;;;;;;5054047;28;20492;-48
2020/12/03 07:24:35;;;;;;;47.93;15.13;;;1.00;99.90;;;;;;5070260;28;20494;-49
2020/12/03 07:27:33;;;;;;;43.10;16.10;;;0.90;99.90;;;;;;5070567;28;20520;-48
2020/12/03 07:30:02;;;;;;;37.07;14.40;;;0.90;99.90;;;;;;5069853;28;20457;-48
2020/12/03 07:32:42;;;;;;;45.93;16.50;;;1.00;99.90;;;;;;5069460;28;20539;-48
2020/12/03 07:35:23;;;;;;;38.73;15.27;;;1.00;99.90;;;;;;5068497;28;20450;-48
2020/12/03 07:37:57;;;;;;;44.57;16.03;;;1.00;99.90;;;;;;5060131;28;20519;-48
2020/12/03 07:40:23;;;;;;;43.47;15.70;;;1.00;99.90;;;;;;5070571;28;20516;-49
2020/12/03 07:43:00;;;;;;;40.17;16.47;;;1.00;99.90;;;;;;5070664;28;20445;-49
2020/12/03 07:45:42;;;;;;;43.63;16.00;;;1.10;99.90;;;;;;5070252;28;20514;-48
2020/12/03 07:48:15;;;;;;;48.35;20.63;;;1.00;99.90;;;;;;5067633;28;20530;-49
2020/12/03 07:51:08;;;;;;;40.17;16.07;;;1.20;99.90;;;;;;5069002;28;20249;-48
2020/12/03 07:53:35;;;;;;;43.53;16.73;;;1.30;99.90;;;;;;5052446;28;20461;-49
2020/12/03 07:56:31;;;;;;;41.03;15.87;;;1.30;99.90;;;;;;5074875;28;20466;-48
2020/12/03 07:59:27;;;;;;;39.70;15.57;;;1.20;99.90;;;;;;5065273;28;20541;-48
2020/12/03 08:01:55;;;;;;;41.57;16.30;;;1.50;99.90;;;;;;5070695;28;20445;-48
2020/12/03 08:04:31;;;;;;;41.43;16.10;;;1.40;99.90;;;;;;5086571;28;20444;-49
2020/12/03 08:07:33;;;;;;;39.57;15.57;;;1.50;99.90;;;;;;5070404;28;20455;-48
2020/12/03 08:09:59;;;;;;;39.33;15.60;;;1.40;99.90;;;;;;5068952;28;20438;-48
2020/12/03 08:12:28;;;;;;;38.93;14.63;;;1.40;99.90;;;;;;5069250;28;20481;-48
2020/12/03 08:14:55;;;;;;;41.67;14.93;;;1.30;99.90;;;;;;5069165;28;20483;-48
2020/12/03 08:17:52;;;;;;;42.33;15.53;;;1.50;99.90;;;;;;5069741;28;20463;-48
2020/12/03 08:20:22;;;;;;;39.10;15.97;;;1.60;99.90;;;;;;5005024;28;20514;-47
2020/12/03 08:22:51;;;;;;;34.07;14.40;;;1.60;99.90;;;;;;5070281;28;20904;-48
2020/12/03 08:25:25;;;;;;;36.80;15.20;;;1.50;99.90;;;;;;5088081;28;20483;-48
2020/12/03 08:27:58;;;;;;;40.90;15.97;;;1.60;99.90;;;;;;5087723;28;20447;-48
2020/12/03 08:30:40;;;;;;;40.83;15.47;;;1.50;99.90;;;;;;5087355;28;20430;-48
2020/12/03 08:33:11;;;;;;;36.30;14.83;;;1.70;99.90;;;;;;5087403;28;20432;-48
2020/12/03 08:35:39;;;;;;;40.40;15.50;;;1.80;99.90;;;;;;5087735;28;20441;-47
2020/12/03 08:38:06;;;;;;;39.77;16.63;;;1.70;99.90;;;;;;5088154;28;20465;-48
2020/12/03 08:40:36;;;;;;;40.90;15.87;;;1.60;99.90;;;;;;5075296;28;20446;-48
2020/12/03 08:43:07;;;;;;;41.30;15.10;;;1.70;99.90;;;;;;5086277;28;20441;-48
2020/12/03 08:45:42;;;;;;;37.57;15.80;;;1.80;99.90;;;;;;5090649;28;20818;-47
2020/12/03 08:48:13;;;;;;;33.77;14.90;;;1.80;99.90;;;;;;5091385;28;20940;-48
2020/12/03 08:50:39;;;;;;;38.30;15.00;;;1.90;99.90;;;;;;5091413;28;20473;-47
2020/12/03 08:53:11;;;;;;;31.70;13.70;;;1.90;99.90;;;;;;5091637;28;21025;-48
2020/12/03 08:55:41;;;;;;;32.07;13.07;;;2.10;99.90;;;;;;5070591;28;20445;-48
2020/12/03 08:58:09;;;;;;;34.13;14.80;;;2.00;99.90;;;;;;5072363;28;20444;-48
2020/12/03 09:00:41;;;;;;;37.17;14.57;;;2.10;99.90;;;;;;5072088;28;21222;-48
2020/12/03 09:03:13;;;;;;;32.23;14.43;;;2.20;99.90;;;;;;5072242;28;20443;-48
2020/12/03 09:05:42;;;;;;;37.50;14.77;;;2.10;99.90;;;;;;5071988;28;20542;-48
2020/12/03 09:08:12;;;;;;;33.67;14.53;;;2.00;99.90;;;;;;5072008;28;20451;-48
2020/12/03 09:10:39;;;;;;;37.60;15.00;;;2.10;99.90;;;;;;5068018;28;20944;-48
2020/12/03 09:13:07;;;;;;;35.90;15.07;;;2.20;99.90;;;;;;5071715;28;20555;-49
2020/12/03 09:15:34;;;;;;;37.90;15.70;;;2.20;99.90;;;;;;5071814;28;20932;-48
2020/12/03 09:18:05;;;;;;;39.23;16.57;;;2.40;99.90;;;;;;5072411;28;20442;-48
2020/12/03 09:20:32;;;;;;;33.93;15.20;;;2.40;99.90;;;;;;5071647;28;20438;-47
2020/12/03 09:22:59;;;;;;;39.07;15.13;;;2.40;99.90;;;;;;5071694;28;20435;-49
2020/12/03 09:25:26;;;;;;;34.77;14.83;;;2.40;99.90;;;;;;5071675;28;20500;-48
2020/12/03 09:27:52;;;;;;;32.90;14.90;;;2.50;99.90;;;;;;5071496;28;20458;-49
2020/12/03 09:30:22;;;;;;;37.70;15.37;;;2.60;99.90;;;;;;5071335;28;20447;-48
2020/12/03 09:32:54;;;;;;;37.07;15.43;;;2.50;99.90;;;;;;5071413;28;20486;-48
2020/12/03 09:35:21;;;;;;;32.07;14.40;;;2.50;99.90;;;;;;5071571;28;20446;-49
2020/12/03 09:37:49;;;;;;;38.70;15.33;;;2.60;99.90;;;;;;5071257;28;20455;-48
2020/12/03 09:40:16;;;;;;;35.30;14.20;;;2.60;99.90;;;;;;5071342;28;20439;-48
2020/12/03 09:42:48;;;;;;;36.10;15.00;;;2.60;99.90;;;;;;5071510;28;20439;-48
2020/12/03 09:45:19;;;;;;;30.70;13.80;;;2.80;99.90;;;;;;5071292;28;20526;-48
2020/12/03 09:47:46;;;;;;;31.70;14.17;;;2.80;99.90;;;;;;5070930;28;20591;-49
2020/12/03 09:50:14;;;;;;;33.73;15.20;;;2.90;99.90;;;;;;5070695;28;20531;-49
2020/12/03 09:52:42;;;;;;;30.23;13.80;;;3.00;99.90;;;;;;5071181;28;20551;-49
2020/12/03 09:55:13;;;;;;;32.83;13.33;;;3.00;99.90;;;;;;5080905;28;20859;-49
2020/12/03 09:57:40;;;;;;;30.67;14.00;;;3.00;99.90;;;;;;5091986;22;20428;-53
2020/12/03 10:00:08;;;;;;;29.17;14.13;;;3.00;99.90;;;;;;5058423;28;20455;-53
2020/12/03 10:03:12;;;;;;;34.10;13.70;;;3.20;99.90;;;;;;5069118;28;20499;-53
2020/12/03 10:05:53;;;;;;;30.10;13.60;;;3.20;99.90;;;;;;5053384;28;20447;-54
2020/12/03 10:08:42;;;;;;;28.97;14.00;;;3.30;99.90;;;;;;5060588;28;20489;-54
2020/12/03 10:11:26;;;;;;;26.03;12.80;;;3.40;99.90;;;;;;5069855;28;20442;-54
2020/12/03 10:14:28;;;;;;;30.53;13.70;;;3.80;99.90;;;;;;5069485;28;20489;-53
2020/12/03 10:17:04;;;;;;;30.20;13.50;;;4.50;99.90;;;;;;5060476;28;20497;-53
2020/12/03 10:19:34;;;;;;;29.37;13.37;;;4.70;99.90;;;;;;5050535;28;20972;-54
2020/12/03 10:22:05;;;;;;;29.50;13.10;;;5.00;99.90;;;;;;5047198;28;20486;-54
2020/12/03 10:24:38;;;;;;;33.40;14.53;;;5.20;99.90;;;;;;5050772;28;20451;-53
2020/12/03 10:27:12;;;;;;;27.53;12.60;;;5.20;99.90;;;;;;5047492;28;20444;-53
2020/12/03 10:29:45;;;;;;;28.93;13.63;;;5.20;99.90;;;;;;5068928;28;20508;-53
2020/12/03 10:32:13;;;;;;;31.43;13.60;;;4.80;99.90;;;;;;5069078;28;21010;-53
2020/12/03 10:34:41;;;;;;;30.10;13.90;;;4.80;99.90;;;;;;5069072;28;20489;-53
2020/12/03 10:37:19;;;;;;;30.00;14.17;;;4.70;99.90;;;;;;5068900;28;20435;-54
2020/12/03 10:39:51;;;;;;;30.03;13.27;;;4.80;99.90;;;;;;5068561;28;20496;-54
2020/12/03 10:42:20;;;;;;;24.90;13.27;;;4.80;99.90;;;;;;5069070;28;20448;-53
2020/12/03 10:44:50;;;;;;;30.33;13.83;;;4.90;99.90;;;;;;5068940;28;20479;-53
2020/12/03 10:47:20;;;;;;;29.93;13.27;;;5.00;99.90;;;;;;5068622;28;20435;-53
2020/12/03 10:49:47;;;;;;;26.73;13.10;;;5.10;99.90;;;;;;5068374;28;20454;-53
2020/12/03 10:52:14;;;;;;;29.90;13.10;;;5.00;99.90;;;;;;5046251;28;20567;-53
2020/12/03 10:54:42;;;;;;;29.23;14.30;;;4.90;99.90;;;;;;5067696;28;20439;-53
2020/12/03 10:57:18;;;;;;;30.83;14.50;;;4.90;99.90;;;;;;5068652;28;20535;-53
2020/12/03 10:59:45;;;;;;;28.47;13.60;;;4.90;99.90;;;;;;5068332;28;20450;-53
2020/12/03 11:02:25;;;;;;;27.10;12.63;;;5.10;99.90;;;;;;5068405;28;20869;-53
2020/12/03 11:04:53;;;;;;;31.73;13.53;;;5.00;99.90;;;;;;5068682;28;20447;-54
2020/12/03 11:07:20;;;;;;;32.90;15.10;;;5.20;99.90;;;;;;5068898;28;20447;-54
2020/12/03 11:09:52;;;;;;;28.63;14.60;;;5.20;99.90;;;;;;5068448;28;20539;-54
2020/12/03 11:12:19;;;;;;;28.17;15.00;;;5.10;99.90;;;;;;5068403;28;20555;-54
2020/12/03 11:14:47;;;;;;;30.93;15.03;;;5.20;99.90;;;;;;5068156;28;20897;-54
2020/12/03 11:17:32;;;;;;;33.27;14.97;;;5.10;99.90;;;;;;5068514;28;20718;-54
2020/12/03 11:20:01;;;;;;;30.47;14.77;;;5.00;99.90;;;;;;5067219;28;20442;-53
2020/12/03 11:23:00;;;;;;;28.83;14.73;;;5.10;99.90;;;;;;5068088;28;20467;-54
2020/12/03 11:25:28;;;;;;;33.07;15.27;;;5.10;99.90;;;;;;5067950;28;20500;-53
2020/12/03 11:27:59;;;;;;;32.50;15.97;;;5.10;99.90;;;;;;5068288;28;20462;-54
2020/12/03 11:30:28;;;;;;;34.93;15.67;;;4.90;99.90;;;;;;5067991;28;20447;-53
2020/12/03 11:32:56;;;;;;;32.70;16.43;;;4.60;99.90;;;;;;5068405;28;20479;-54
2020/12/03 11:35:27;;;;;;;29.77;14.87;;;4.50;99.90;;;;;;5068527;28;20522;-53
2020/12/03 11:37:55;;;;;;;34.37;15.47;;;4.70;99.90;;;;;;5068658;28;20475;-54
2020/12/03 11:40:31;;;;;;;37.23;17.00;;;4.80;99.90;;;;;;5059967;28;20454;-54
2020/12/03 11:43:15;;;;;;;31.67;14.73;;;4.80;99.90;;;;;;5050288;28;20470;-54
2020/12/03 11:48:37;;;;;;;35.63;15.20;;;4.90;99.90;;;;;;4993197;28;20451;-54
2020/12/03 11:51:04;;;;;;;29.17;15.17;;;5.00;99.90;;;;;;5065612;28;20478;-54
2020/12/03 11:53:31;;;;;;;34.00;15.37;;;5.10;99.90;;;;;;5052467;28;21008;-54
2020/12/03 11:55:58;;;;;;;29.70;14.40;;;5.00;99.90;;;;;;5049328;28;20472;-54
2020/12/03 11:58:30;;;;;;;30.47;14.17;;;4.80;99.90;;;;;;5048867;28;20985;-54
2020/12/03 12:01:13;;;;;;;25.70;14.37;;;4.80;99.90;;;;;;5049791;28;20820;-54
2020/12/03 12:03:42;;;;;;;32.13;15.20;;;4.80;99.90;;;;;;5049870;28;20862;-54
2020/12/03 12:06:15;;;;;;;34.47;15.40;;;4.90;99.90;;;;;;5049608;28;20521;-55
2020/12/03 12:08:45;;;;;;;30.90;15.60;;;4.80;99.90;;;;;;5040849;28;20539;-54
2020/12/03 12:11:16;;;;;;;27.03;14.50;;;4.70;99.90;;;;;;5047412;28;20441;-53
2020/12/03 12:13:43;;;;;;;31.80;15.80;;;4.60;99.90;;;;;;5056900;28;20443;-54
2020/12/03 12:16:09;;;;;;;29.97;14.80;;;4.70;99.90;;;;;;5049258;28;20440;-54
2020/12/03 12:18:38;;;;;;;36.47;16.07;;;4.80;99.90;;;;;;5048867;28;20542;-54
2020/12/03 12:21:06;;;;;;;33.80;15.97;;;4.70;99.90;;;;;;5052811;28;20451;-54
2020/12/03 12:23:32;;;;;;;30.77;15.00;;;4.80;99.90;;;;;;5071488;28;20504;-54
2020/12/03 12:25:58;;;;;;;33.77;15.13;;;4.60;99.90;;;;;;5060620;28;20532;-54
2020/12/03 12:28:25;;;;;;;33.70;14.87;;;4.60;99.90;;;;;;5052862;28;20460;-54
2020/12/03 12:30:51;;;;;;;26.53;14.07;;;4.50;99.90;;;;;;5052765;28;20490;-54
2020/12/03 12:33:18;;;;;;;29.70;15.33;;;4.20;99.90;;;;;;5052740;28;20479;-53
2020/12/03 12:35:45;;;;;;;29.20;15.50;;;4.00;99.90;;;;;;5052552;28;20444;-54
2020/12/03 12:38:12;;;;;;;28.93;15.07;;;4.10;99.90;;;;;;5052825;28;20833;-54
2020/12/03 12:40:38;;;;;;;30.87;15.13;;;4.10;99.90;;;;;;5052800;28;20550;-54
2020/12/03 12:43:05;;;;;;;31.93;14.90;;;4.10;99.90;;;;;;5052714;28;20493;-54
2020/12/03 12:45:31;;;;;;;26.27;13.60;;;4.00;99.90;;;;;;5052571;28;20946;-54
2020/12/03 12:47:58;;;;;;;25.70;14.03;;;4.20;99.90;;;;;;5052480;28;20468;-54
2020/12/03 12:50:25;;;;;;;28.57;14.17;;;4.30;99.90;;;;;;5070853;28;20987;-54
2020/12/03 12:52:52;;;;;;;29.17;14.20;;;4.20;99.90;;;;;;5070937;28;20606;-54
2020/12/03 12:55:18;;;;;;;25.17;13.33;;;4.40;99.90;;;;;;5071548;28;20468;-54
2020/12/03 12:57:45;;;;;;;26.67;13.30;;;4.40;99.90;;;;;;5071087;28;20470;-55
2020/12/03 13:00:11;;;;;;;25.67;12.90;;;4.30;99.90;;;;;;5071255;28;20511;-54
2020/12/03 13:02:38;;;;;;;25.83;13.47;;;4.30;99.90;;;;;;5065799;28;20502;-55
2020/12/03 13:05:04;;;;;;;23.10;11.73;;;4.30;99.90;;;;;;5052779;28;20440;-54